createdAt,value
2019-03-05T00:00:42.857Z,0.00
2019-03-05T00:01:42.834Z,0.00
2019-03-05T00:02:42.871Z,0.00
2019-03-05T00:03:42.793Z,0.00
2019-03-05T00:04:42.832Z,0.00
2019-03-05T00:05:42.742Z,0.00
2019-03-05T00:06:42.731Z,0.00
2019-03-05T00:07:42.709Z,0.00
2019-03-05T00:08:42.729Z,0.00
2019-03-05T00:09:42.688Z,0.00
2019-03-05T00:10:43.669Z,0.00
2019-03-05T00:11:42.622Z,0.00
2019-03-05T00:12:43.180Z,0.00
2019-03-05T00:13:42.594Z,0.00
2019-03-05T00:14:42.560Z,0.00
2019-03-05T00:15:42.537Z,0.00
2019-03-05T00:16:42.513Z,0.00
2019-03-05T00:17:42.504Z,0.00
2019-03-05T00:18:42.497Z,0.00
2019-03-05T00:19:42.455Z,0.00
2019-03-05T00:20:42.432Z,0.00
2019-03-05T00:21:42.423Z,0.00
2019-03-05T00:22:43.170Z,0.00
2019-03-05T00:23:42.365Z,0.00
2019-03-05T00:24:42.360Z,0.00
2019-03-05T00:25:42.330Z,0.00
2019-03-05T00:26:42.299Z,0.00
2019-03-05T00:27:43.171Z,0.00
2019-03-05T00:28:42.263Z,0.00
2019-03-05T00:29:42.258Z,0.00
2019-03-05T00:30:42.217Z,0.00
2019-03-05T00:31:42.193Z,0.00
2019-03-05T00:32:42.177Z,0.00
2019-03-05T00:33:42.151Z,0.00
2019-03-05T00:34:42.131Z,0.00
2019-03-05T00:35:42.138Z,0.00
2019-03-05T00:36:42.086Z,0.00
2019-03-05T00:37:42.063Z,0.00
2019-03-05T00:38:42.059Z,0.00
2019-03-05T00:39:42.026Z,0.00
2019-03-05T00:40:42.008Z,0.00
2019-03-05T00:41:41.999Z,0.00
2019-03-05T00:42:41.972Z,0.00
2019-03-05T00:43:41.939Z,0.00
2019-03-05T00:44:41.913Z,0.00
2019-03-05T00:45:41.898Z,0.00
2019-03-05T00:46:41.890Z,0.00
2019-03-05T00:47:41.870Z,0.00
2019-03-05T00:48:41.839Z,0.00
2019-03-05T00:49:41.810Z,0.00
2019-03-05T00:50:41.787Z,0.00
2019-03-05T00:51:41.764Z,0.00
2019-03-05T00:52:41.764Z,0.00
2019-03-05T00:53:41.742Z,0.00
2019-03-05T00:54:41.701Z,0.00
2019-03-05T00:55:41.682Z,0.00
2019-03-05T00:56:41.659Z,0.00
2019-03-05T00:57:41.637Z,0.00
2019-03-05T00:58:41.630Z,0.00
2019-03-05T00:59:41.610Z,0.00
2019-03-05T01:00:41.574Z,0.00
2019-03-05T01:01:41.559Z,0.00
2019-03-05T01:02:41.536Z,0.00
2019-03-05T01:03:42.186Z,0.00
2019-03-05T01:04:41.510Z,0.00
2019-03-05T01:05:41.465Z,0.00
2019-03-05T01:06:42.229Z,0.00
2019-03-05T01:07:41.422Z,0.00
2019-03-05T01:08:41.406Z,0.00
2019-03-05T01:09:41.391Z,0.00
2019-03-05T01:10:41.377Z,0.00
2019-03-05T01:11:41.342Z,0.00
2019-03-05T01:12:41.338Z,0.00
2019-03-05T01:13:43.181Z,0.00
2019-03-05T01:14:41.284Z,0.00
2019-03-05T01:15:41.253Z,0.00
2019-03-05T01:16:41.250Z,0.00
2019-03-05T01:17:41.206Z,0.00
2019-03-05T01:18:41.190Z,0.00
2019-03-05T01:19:41.174Z,0.00
2019-03-05T01:20:41.161Z,0.00
2019-03-05T01:21:41.125Z,0.00
2019-03-05T01:22:41.147Z,0.00
2019-03-05T01:23:41.083Z,0.00
2019-03-05T01:24:41.079Z,0.00
2019-03-05T01:25:41.034Z,0.00
2019-03-05T01:26:41.016Z,0.00
2019-03-05T01:27:40.999Z,0.00
2019-03-05T01:28:40.987Z,0.00
2019-03-05T01:29:40.972Z,0.00
2019-03-05T01:30:40.929Z,0.00
2019-03-05T01:31:40.926Z,0.00
2019-03-05T01:32:40.890Z,0.00
2019-03-05T01:33:40.866Z,0.00
2019-03-05T01:34:41.680Z,0.00
2019-03-05T01:35:40.850Z,0.00
2019-03-05T01:36:40.807Z,0.00
2019-03-05T01:37:40.782Z,0.00
2019-03-05T01:38:40.761Z,0.00
2019-03-05T01:39:40.748Z,0.00
2019-03-05T01:40:40.733Z,0.00
2019-03-05T01:41:40.711Z,0.00
2019-03-05T01:42:40.670Z,0.00
2019-03-05T01:43:40.653Z,0.00
2019-03-05T01:44:40.631Z,0.00
2019-03-05T01:45:40.625Z,0.00
2019-03-05T01:46:40.585Z,0.00
2019-03-05T01:47:40.581Z,0.00
2019-03-05T01:48:40.544Z,0.00
2019-03-05T01:49:40.518Z,0.00
2019-03-05T01:50:40.501Z,0.00
2019-03-05T01:51:40.568Z,0.00
2019-03-05T01:52:40.488Z,0.00
2019-03-05T01:53:40.436Z,0.00
2019-03-05T01:54:40.419Z,0.00
2019-03-05T01:55:40.388Z,0.00
2019-03-05T01:56:40.364Z,0.00
2019-03-05T01:57:40.367Z,0.00
2019-03-05T01:58:40.327Z,0.00
2019-03-05T01:59:40.305Z,0.00
2019-03-05T02:00:40.288Z,0.00
2019-03-05T02:01:40.263Z,0.00
2019-03-05T02:02:40.247Z,0.00
2019-03-05T02:03:40.233Z,0.00
2019-03-05T02:04:40.198Z,0.00
2019-03-05T02:05:40.174Z,0.00
2019-03-05T02:06:40.150Z,0.00
2019-03-05T02:07:40.727Z,0.00
2019-03-05T02:08:40.189Z,0.00
2019-03-05T02:09:40.102Z,0.00
2019-03-05T02:10:40.063Z,0.00
2019-03-05T02:11:40.056Z,0.00
2019-03-05T02:12:40.032Z,0.00
2019-03-05T02:13:40.720Z,0.00
2019-03-05T02:14:39.979Z,0.00
2019-03-05T02:15:40.687Z,0.00
2019-03-05T02:16:39.936Z,0.00
2019-03-05T02:17:39.926Z,0.00
2019-03-05T02:18:39.888Z,0.00
2019-03-05T02:19:39.867Z,0.00
2019-03-05T02:20:39.848Z,0.00
2019-03-05T02:21:39.826Z,0.00
2019-03-05T02:22:39.817Z,0.00
2019-03-05T02:23:39.779Z,0.00
2019-03-05T02:24:39.759Z,0.00
2019-03-05T02:25:39.736Z,0.00
2019-03-05T02:26:39.715Z,0.00
2019-03-05T02:27:39.707Z,0.00
2019-03-05T02:28:39.669Z,0.00
2019-03-05T02:29:39.651Z,0.00
2019-03-05T02:30:40.232Z,0.00
2019-03-05T02:31:39.601Z,0.00
2019-03-05T02:32:39.597Z,0.00
2019-03-05T02:33:39.581Z,0.00
2019-03-05T02:34:39.554Z,0.00
2019-03-05T02:35:39.519Z,0.00
2019-03-05T02:36:39.498Z,0.00
2019-03-05T02:37:39.476Z,0.00
2019-03-05T02:38:39.463Z,0.00
2019-03-05T02:39:39.434Z,0.00
2019-03-05T02:40:39.424Z,0.00
2019-03-05T02:41:39.387Z,0.00
2019-03-05T02:42:39.366Z,0.00
2019-03-05T02:43:39.345Z,0.00
2019-03-05T02:44:40.265Z,0.00
2019-03-05T02:45:39.323Z,0.00
2019-03-05T02:46:39.274Z,0.00
2019-03-05T02:47:39.256Z,0.00
2019-03-05T02:48:39.235Z,0.00
2019-03-05T02:49:39.228Z,0.00
2019-03-05T02:50:39.207Z,0.00
2019-03-05T02:51:39.168Z,0.00
2019-03-05T02:52:39.148Z,0.00
2019-03-05T02:53:39.116Z,0.00
2019-03-05T02:54:39.102Z,0.00
2019-03-05T02:55:39.098Z,0.00
2019-03-05T02:56:39.056Z,0.00
2019-03-05T02:57:39.056Z,0.00
2019-03-05T02:58:39.012Z,0.00
2019-03-05T02:59:38.999Z,0.00
2019-03-05T03:00:38.997Z,0.00
2019-03-05T03:01:38.956Z,0.00
2019-03-05T03:02:38.927Z,0.00
2019-03-05T03:03:38.904Z,0.00
2019-03-05T03:04:38.884Z,0.00
2019-03-05T03:05:38.867Z,0.00
2019-03-05T03:06:38.850Z,0.00
2019-03-05T03:07:38.829Z,0.00
2019-03-05T03:08:38.814Z,0.00
2019-03-05T03:09:38.772Z,0.00
2019-03-05T03:10:38.758Z,0.00
2019-03-05T03:11:38.730Z,0.00
2019-03-05T03:12:38.709Z,0.00
2019-03-05T03:13:38.720Z,0.00
2019-03-05T03:14:38.667Z,0.00
2019-03-05T03:15:38.644Z,0.00
2019-03-05T03:16:38.624Z,0.00
2019-03-05T03:17:38.616Z,0.00
2019-03-05T03:18:38.593Z,0.00
2019-03-05T03:19:38.557Z,0.00
2019-03-05T03:20:38.545Z,0.00
2019-03-05T03:21:38.536Z,0.00
2019-03-05T03:22:38.491Z,0.00
2019-03-05T03:23:38.498Z,0.00
2019-03-05T03:24:38.448Z,0.00
2019-03-05T03:25:38.423Z,0.00
2019-03-05T03:26:38.405Z,0.00
2019-03-05T03:27:38.383Z,0.00
2019-03-05T03:28:38.367Z,0.00
2019-03-05T03:29:39.193Z,0.00
2019-03-05T03:30:38.321Z,0.00
2019-03-05T03:31:38.292Z,0.00
2019-03-05T03:32:39.196Z,0.00
2019-03-05T03:33:38.253Z,0.00
2019-03-05T03:34:38.225Z,0.00
2019-03-05T03:35:38.276Z,0.00
2019-03-05T03:36:38.184Z,0.00
2019-03-05T03:37:38.160Z,0.00
2019-03-05T03:38:38.145Z,0.00
2019-03-05T03:39:38.121Z,0.00
2019-03-05T03:40:38.101Z,0.00
2019-03-05T03:41:38.093Z,0.00
2019-03-05T03:42:38.049Z,0.00
2019-03-05T03:43:38.029Z,0.00
2019-03-05T03:44:38.009Z,0.00
2019-03-05T03:45:38.001Z,0.00
2019-03-05T03:46:37.966Z,0.00
2019-03-05T03:47:37.937Z,0.00
2019-03-05T03:48:37.938Z,0.00
2019-03-05T03:49:37.909Z,0.00
2019-03-05T03:50:37.877Z,0.00
2019-03-05T03:51:37.854Z,0.00
2019-03-05T03:52:38.740Z,0.00
2019-03-05T03:53:37.844Z,0.00
2019-03-05T03:54:37.802Z,0.00
2019-03-05T03:55:37.765Z,0.00
2019-03-05T03:56:37.741Z,0.00
2019-03-05T03:57:37.721Z,0.00
2019-03-05T03:58:37.694Z,0.00
2019-03-05T03:59:37.693Z,0.00
2019-03-05T04:00:38.214Z,0.00
2019-03-05T04:01:37.629Z,0.00
2019-03-05T04:02:37.615Z,0.00
2019-03-05T04:03:37.623Z,0.00
2019-03-05T04:04:37.568Z,0.00
2019-03-05T04:05:37.587Z,0.00
2019-03-05T04:06:37.525Z,0.00
2019-03-05T04:07:37.512Z,0.00
2019-03-05T04:08:37.478Z,0.00
2019-03-05T04:09:37.466Z,0.00
2019-03-05T04:10:37.435Z,0.00
2019-03-05T04:11:37.409Z,0.00
2019-03-05T04:12:37.420Z,0.00
2019-03-05T04:13:37.372Z,0.00
2019-03-05T04:14:37.351Z,0.00
2019-03-05T04:15:37.345Z,0.00
2019-03-05T04:16:37.320Z,0.00
2019-03-05T04:17:37.278Z,0.00
2019-03-05T04:18:37.282Z,0.00
2019-03-05T04:19:37.247Z,0.00
2019-03-05T04:20:37.699Z,0.00
2019-03-05T04:21:37.739Z,0.00
2019-03-05T04:22:37.171Z,0.00
2019-03-05T04:23:37.164Z,0.00
2019-03-05T04:24:37.127Z,0.00
2019-03-05T04:25:37.100Z,0.00
2019-03-05T04:26:37.084Z,0.00
2019-03-05T04:27:37.059Z,0.00
2019-03-05T04:28:37.150Z,0.00
2019-03-05T04:29:38.704Z,0.00
2019-03-05T04:30:36.992Z,0.00
2019-03-05T04:31:36.969Z,0.00
2019-03-05T04:32:36.955Z,0.00
2019-03-05T04:33:36.928Z,0.00
2019-03-05T04:34:36.918Z,0.00
2019-03-05T04:35:36.883Z,0.00
2019-03-05T04:36:36.879Z,0.00
2019-03-05T04:37:36.838Z,0.00
2019-03-05T04:38:36.817Z,0.00
2019-03-05T04:39:36.793Z,0.00
2019-03-05T04:40:36.784Z,0.00
2019-03-05T04:41:36.764Z,0.00
2019-03-05T04:42:36.729Z,0.00
2019-03-05T04:43:36.706Z,0.00
2019-03-05T04:44:36.707Z,0.00
2019-03-05T04:45:37.219Z,0.00
2019-03-05T04:46:36.695Z,0.00
2019-03-05T04:47:36.616Z,0.00
2019-03-05T04:48:36.597Z,0.00
2019-03-05T04:49:36.571Z,0.00
2019-03-05T04:50:36.555Z,0.00
2019-03-05T04:51:36.538Z,0.00
2019-03-05T04:52:37.214Z,0.00
2019-03-05T04:53:37.210Z,0.00
2019-03-05T04:54:36.462Z,0.00
2019-03-05T04:55:36.441Z,0.00
2019-03-05T04:56:36.435Z,0.00
2019-03-05T04:57:36.398Z,0.00
2019-03-05T04:58:36.372Z,0.00
2019-03-05T04:59:36.350Z,0.00
2019-03-05T05:00:36.328Z,0.00
2019-03-05T05:01:36.309Z,0.00
2019-03-05T05:02:36.307Z,0.00
2019-03-05T05:03:36.270Z,0.00
2019-03-05T05:04:36.255Z,0.00
2019-03-05T05:05:36.220Z,0.00
2019-03-05T05:06:36.198Z,0.00
2019-03-05T05:07:36.177Z,0.00
2019-03-05T05:08:36.171Z,0.00
2019-03-05T05:09:37.891Z,0.00
2019-03-05T05:10:36.111Z,0.00
2019-03-05T05:11:36.087Z,0.00
2019-03-05T05:12:36.072Z,0.00
2019-03-05T05:13:36.704Z,0.00
2019-03-05T05:14:36.043Z,0.00
2019-03-05T05:15:36.011Z,0.00
2019-03-05T05:16:35.984Z,0.00
2019-03-05T05:17:35.959Z,0.00
2019-03-05T05:18:35.937Z,0.00
2019-03-05T05:19:35.938Z,0.00
2019-03-05T05:20:35.889Z,0.00
2019-03-05T05:21:35.867Z,0.00
2019-03-05T05:22:35.852Z,0.00
2019-03-05T05:23:35.828Z,0.00
2019-03-05T05:24:35.820Z,0.00
2019-03-05T05:25:35.804Z,0.00
2019-03-05T05:26:35.762Z,0.00
2019-03-05T05:27:35.754Z,0.00
2019-03-05T05:28:35.862Z,0.00
2019-03-05T05:29:36.705Z,0.00
2019-03-05T05:30:35.671Z,0.00
2019-03-05T05:31:35.677Z,0.00
2019-03-05T05:32:35.636Z,0.00
2019-03-05T05:33:35.607Z,0.00
2019-03-05T05:34:35.586Z,0.00
2019-03-05T05:35:35.569Z,0.00
2019-03-05T05:36:35.563Z,0.00
2019-03-05T05:37:35.519Z,0.00
2019-03-05T05:38:35.509Z,0.00
2019-03-05T05:39:36.208Z,0.00
2019-03-05T05:40:35.453Z,0.00
2019-03-05T05:41:35.447Z,0.00
2019-03-05T05:42:35.446Z,0.00
2019-03-05T05:43:35.397Z,0.00
2019-03-05T05:44:35.375Z,0.00
2019-03-05T05:45:36.259Z,0.00
2019-03-05T05:46:35.347Z,0.00
2019-03-05T05:47:35.299Z,4.00
2019-03-05T05:48:35.283Z,4.00
2019-03-05T05:49:35.259Z,0.00
2019-03-05T05:50:36.210Z,0.00
2019-03-05T05:51:35.212Z,4.00
2019-03-05T05:52:35.206Z,0.00
2019-03-05T05:53:35.168Z,4.00
2019-03-05T05:54:35.165Z,4.00
2019-03-05T05:55:35.128Z,4.00
2019-03-05T05:56:35.125Z,8.00
2019-03-05T05:57:35.960Z,4.00
2019-03-05T05:58:35.058Z,8.00
2019-03-05T05:59:35.063Z,8.00
2019-03-05T06:00:35.018Z,12.00
2019-03-05T06:01:34.992Z,12.00
2019-03-05T06:02:34.967Z,12.00
2019-03-05T06:03:36.987Z,16.00
2019-03-05T06:04:34.948Z,16.00
2019-03-05T06:05:34.908Z,16.00
2019-03-05T06:06:34.883Z,16.00
2019-03-05T06:07:34.858Z,16.00
2019-03-05T06:08:34.842Z,20.00
2019-03-05T06:09:34.838Z,20.00
2019-03-05T06:10:34.794Z,20.00
2019-03-05T06:11:34.791Z,20.00
2019-03-05T06:12:34.775Z,24.00
2019-03-05T06:13:35.262Z,32.00
2019-03-05T06:14:34.712Z,36.00
2019-03-05T06:15:34.686Z,40.00
2019-03-05T06:16:34.662Z,44.00
2019-03-05T06:17:34.685Z,44.00
2019-03-05T06:18:34.614Z,48.00
2019-03-05T06:19:34.643Z,56.00
2019-03-05T06:20:34.572Z,60.00
2019-03-05T06:21:34.549Z,72.00
2019-03-05T06:22:34.528Z,80.00
2019-03-05T06:23:34.523Z,88.00
2019-03-05T06:24:34.492Z,92.00
2019-03-05T06:25:34.462Z,100.00
2019-03-05T06:26:35.212Z,104.00
2019-03-05T06:27:34.441Z,108.00
2019-03-05T06:28:34.398Z,116.00
2019-03-05T06:29:34.373Z,120.00
2019-03-05T06:30:34.349Z,132.00
2019-03-05T06:31:34.330Z,140.00
2019-03-05T06:32:34.308Z,148.00
2019-03-05T06:33:35.248Z,152.00
2019-03-05T06:34:34.263Z,164.00
2019-03-05T06:35:34.245Z,168.00
2019-03-05T06:36:34.238Z,176.00
2019-03-05T06:37:34.198Z,172.00
2019-03-05T06:38:34.183Z,172.00
2019-03-05T06:39:34.154Z,176.00
2019-03-05T06:40:34.125Z,184.00
2019-03-05T06:41:34.104Z,188.00
2019-03-05T06:42:34.099Z,188.00
2019-03-05T06:43:34.062Z,180.00
2019-03-05T06:44:36.817Z,164.00
2019-03-05T06:45:34.036Z,164.00
2019-03-05T06:46:34.760Z,124.00
2019-03-05T06:47:33.988Z,132.00
2019-03-05T06:48:33.968Z,140.00
2019-03-05T06:49:34.757Z,176.00
2019-03-05T06:50:33.915Z,216.00
2019-03-05T06:51:33.883Z,224.00
2019-03-05T06:52:33.862Z,248.00
2019-03-05T06:53:33.853Z,288.00
2019-03-05T06:54:33.816Z,288.00
2019-03-05T06:55:33.813Z,316.00
2019-03-05T06:56:33.774Z,328.00
2019-03-05T06:57:33.750Z,360.00
2019-03-05T06:58:33.726Z,408.00
2019-03-05T06:59:33.720Z,472.00
2019-03-05T07:00:33.714Z,468.00
2019-03-05T07:01:33.657Z,556.00
2019-03-05T07:02:33.640Z,596.00
2019-03-05T07:03:33.617Z,620.00
2019-03-05T07:04:33.597Z,688.00
2019-03-05T07:05:33.594Z,764.00
2019-03-05T07:06:33.551Z,816.00
2019-03-05T07:07:33.523Z,884.00
2019-03-05T07:08:33.508Z,896.00
2019-03-05T07:09:33.485Z,932.00
2019-03-05T07:10:33.457Z,948.00
2019-03-05T07:11:33.459Z,1036.00
2019-03-05T07:12:33.413Z,1096.00
2019-03-05T07:13:33.391Z,1220.00
2019-03-05T07:14:33.365Z,1268.00
2019-03-05T07:15:33.353Z,1352.00
2019-03-05T07:16:33.331Z,1392.00
2019-03-05T07:17:35.220Z,1364.00
2019-03-05T07:18:33.286Z,1296.00
2019-03-05T07:19:33.255Z,1232.00
2019-03-05T07:20:33.230Z,1152.00
2019-03-05T07:21:33.224Z,1152.00
2019-03-05T07:22:33.197Z,1152.00
2019-03-05T07:23:33.167Z,1224.00
2019-03-05T07:24:33.163Z,1148.00
2019-03-05T07:25:33.134Z,1268.00
2019-03-05T07:26:33.097Z,1360.00
2019-03-05T07:27:33.085Z,1340.00
2019-03-05T07:28:33.054Z,1204.00
2019-03-05T07:29:33.048Z,1204.00
2019-03-05T07:30:33.006Z,1440.00
2019-03-05T07:31:32.988Z,1232.00
2019-03-05T07:32:32.976Z,1260.00
2019-03-05T07:33:32.959Z,1632.00
2019-03-05T07:34:32.929Z,1592.00
2019-03-05T07:35:32.910Z,1676.00
2019-03-05T07:36:32.873Z,1508.00
2019-03-05T07:37:32.856Z,1532.00
2019-03-05T07:38:32.845Z,1652.00
2019-03-05T07:39:32.807Z,1960.00
2019-03-05T07:40:32.795Z,1892.00
2019-03-05T07:41:32.761Z,1764.00
2019-03-05T07:42:32.740Z,1716.00
2019-03-05T07:43:36.400Z,1684.00
2019-03-05T07:44:32.718Z,2200.00
2019-03-05T07:45:32.674Z,3248.00
2019-03-05T07:46:32.647Z,3832.00
2019-03-05T07:47:33.303Z,3760.00
2019-03-05T07:48:32.616Z,3188.00
2019-03-05T07:49:43.241Z,3068.00
2019-03-05T07:50:32.600Z,3472.00
2019-03-05T07:51:32.541Z,3140.00
2019-03-05T07:52:32.531Z,2748.00
2019-03-05T07:53:32.495Z,3392.00
2019-03-05T07:54:32.475Z,3268.00
2019-03-05T07:55:32.450Z,3252.00
2019-03-05T07:56:33.380Z,3672.00
2019-03-05T07:57:32.432Z,3316.00
2019-03-05T07:58:32.389Z,3584.00
2019-03-05T07:59:32.373Z,4060.00
2019-03-05T08:00:32.338Z,3644.00
2019-03-05T08:01:32.327Z,3460.00
2019-03-05T08:02:32.305Z,3588.00
2019-03-05T08:03:32.287Z,3716.00
2019-03-05T08:04:32.257Z,4112.00
2019-03-05T08:05:32.264Z,3748.00
2019-03-05T08:06:32.213Z,3760.00
2019-03-05T08:07:32.183Z,3744.00
2019-03-05T08:08:32.172Z,3676.00
2019-03-05T08:09:32.142Z,3164.00
2019-03-05T08:10:32.128Z,3092.00
2019-03-05T08:11:32.116Z,3520.00
2019-03-05T08:12:32.088Z,3876.00
2019-03-05T08:13:32.052Z,3752.00
2019-03-05T08:14:32.042Z,3004.00
2019-03-05T08:15:32.021Z,3188.00
2019-03-05T08:16:31.991Z,2624.00
2019-03-05T08:17:31.988Z,3084.00
2019-03-05T08:18:31.940Z,1944.00
2019-03-05T08:19:34.062Z,1900.00
2019-03-05T08:20:31.903Z,1904.00
2019-03-05T08:21:31.897Z,2072.00
2019-03-05T08:22:31.857Z,2760.00
2019-03-05T08:23:31.846Z,2388.00
2019-03-05T08:24:31.822Z,2224.00
2019-03-05T08:25:33.725Z,2756.00
2019-03-05T08:26:31.772Z,2316.00
2019-03-05T08:27:31.763Z,2276.00
2019-03-05T08:28:31.731Z,2160.00
2019-03-05T08:29:31.705Z,2100.00
2019-03-05T08:30:32.225Z,1648.00
2019-03-05T08:31:31.661Z,2224.00
2019-03-05T08:32:31.655Z,2388.00
2019-03-05T08:33:31.617Z,2176.00
2019-03-05T08:34:31.597Z,2064.00
2019-03-05T08:35:31.577Z,2104.00
2019-03-05T08:36:31.552Z,1604.00
2019-03-05T08:37:31.548Z,2332.00
2019-03-05T08:38:31.507Z,2644.00
2019-03-05T08:39:31.485Z,1944.00
2019-03-05T08:40:31.511Z,1492.00
2019-03-05T08:41:31.448Z,1448.00
2019-03-05T08:42:31.576Z,1540.00
2019-03-05T08:43:31.397Z,1728.00
2019-03-05T08:44:31.381Z,1800.00
2019-03-05T08:45:31.364Z,1664.00
2019-03-05T08:46:31.352Z,1724.00
2019-03-05T08:47:31.311Z,1456.00
2019-03-05T08:48:31.291Z,1908.00
2019-03-05T08:49:31.287Z,1752.00
2019-03-05T08:50:31.246Z,1836.00
2019-03-05T08:51:31.222Z,1856.00
2019-03-05T08:52:31.205Z,1788.00
2019-03-05T08:53:31.182Z,2236.00
2019-03-05T08:54:31.166Z,1892.00
2019-03-05T08:55:32.229Z,1600.00
2019-03-05T08:56:31.122Z,1360.00
2019-03-05T08:57:31.096Z,1324.00
2019-03-05T08:58:31.072Z,1200.00
2019-03-05T08:59:32.689Z,1412.00
2019-03-05T09:00:31.029Z,1228.00
2019-03-05T09:01:31.028Z,1484.00
2019-03-05T09:02:30.987Z,1296.00
2019-03-05T09:03:30.998Z,1648.00
2019-03-05T09:04:30.948Z,2016.00
2019-03-05T09:05:30.972Z,2436.00
2019-03-05T09:06:30.901Z,2880.00
2019-03-05T09:07:30.878Z,2540.00
2019-03-05T09:08:30.894Z,2608.00
2019-03-05T09:09:30.838Z,2132.00
2019-03-05T09:10:30.840Z,1712.00
2019-03-05T09:11:30.791Z,2400.00
2019-03-05T09:12:30.784Z,2380.00
2019-03-05T09:13:32.994Z,3404.00
2019-03-05T09:14:30.736Z,4364.00
2019-03-05T09:15:30.706Z,4636.00
2019-03-05T09:16:30.688Z,4336.00
2019-03-05T09:17:30.676Z,4712.00
2019-03-05T09:18:30.639Z,3676.00
2019-03-05T09:19:30.619Z,4788.00
2019-03-05T09:20:30.608Z,5600.00
2019-03-05T09:21:30.576Z,5144.00
2019-03-05T09:22:30.560Z,3848.00
2019-03-05T09:23:30.556Z,5800.00
2019-03-05T09:24:30.521Z,7136.00
2019-03-05T09:25:30.495Z,6624.00
2019-03-05T09:26:30.488Z,5200.00
2019-03-05T09:27:30.508Z,7244.00
2019-03-05T09:28:30.428Z,6740.00
2019-03-05T09:29:30.412Z,8796.00
2019-03-05T09:30:30.396Z,7240.00
2019-03-05T09:31:30.397Z,7232.00
2019-03-05T09:32:30.350Z,6404.00
2019-03-05T09:33:30.327Z,4400.00
2019-03-05T09:34:30.306Z,4064.00
2019-03-05T09:35:30.285Z,4672.00
2019-03-05T09:36:30.261Z,4520.00
2019-03-05T09:37:30.259Z,3844.00
2019-03-05T09:38:30.225Z,4080.00
2019-03-05T09:39:30.221Z,5364.00
2019-03-05T09:40:30.207Z,5628.00
2019-03-05T09:41:30.162Z,8008.00
2019-03-05T09:42:39.528Z,6396.00
2019-03-05T09:43:30.127Z,6160.00
2019-03-05T09:44:30.098Z,7928.00
2019-03-05T09:45:30.109Z,8032.00
2019-03-05T09:46:30.058Z,9212.00
2019-03-05T09:47:30.037Z,9720.00
2019-03-05T09:48:30.021Z,7888.00
2019-03-05T09:49:29.996Z,6856.00
2019-03-05T09:50:32.022Z,5468.00
2019-03-05T09:51:29.973Z,4628.00
2019-03-05T09:52:29.941Z,3668.00
2019-03-05T09:53:29.916Z,4624.00
2019-03-05T09:54:29.898Z,6156.00
2019-03-05T09:55:29.878Z,5560.00
2019-03-05T09:56:29.883Z,7392.00
2019-03-05T09:57:30.737Z,6580.00
2019-03-05T09:58:29.833Z,4364.00
2019-03-05T09:59:29.798Z,4760.00
2019-03-05T10:00:29.774Z,6004.00
2019-03-05T10:01:29.757Z,4940.00
2019-03-05T10:02:29.752Z,5604.00
2019-03-05T10:03:29.731Z,7336.00
2019-03-05T10:04:29.695Z,8876.00
2019-03-05T10:05:29.673Z,6508.00
2019-03-05T10:06:29.654Z,6784.00
2019-03-05T10:07:29.652Z,7692.00
2019-03-05T10:08:32.678Z,6624.00
2019-03-05T10:09:29.609Z,6860.00
2019-03-05T10:10:29.578Z,11188.00
2019-03-05T10:11:29.555Z,8368.00
2019-03-05T10:12:30.278Z,10200.00
2019-03-05T10:13:29.510Z,9588.00
2019-03-05T10:14:29.492Z,9084.00
2019-03-05T10:15:30.282Z,12164.00
2019-03-05T10:16:29.459Z,9320.00
2019-03-05T10:17:37.631Z,7616.00
2019-03-05T10:18:29.440Z,9040.00
2019-03-05T10:19:29.398Z,10064.00
2019-03-05T10:20:29.375Z,16352.00
2019-03-05T10:21:30.313Z,13320.00
2019-03-05T10:22:29.332Z,10212.00
2019-03-05T10:23:29.336Z,9668.00
2019-03-05T10:24:29.312Z,10300.00
2019-03-05T10:25:29.278Z,15168.00
2019-03-05T10:26:29.255Z,8128.00
2019-03-05T10:27:29.243Z,7528.00
2019-03-05T10:28:29.225Z,6292.00
2019-03-05T10:29:29.212Z,6072.00
2019-03-05T10:30:29.204Z,9296.00
2019-03-05T10:31:29.172Z,8124.00
2019-03-05T10:32:29.146Z,8296.00
2019-03-05T10:33:29.128Z,7500.00
2019-03-05T10:34:29.107Z,6344.00
2019-03-05T10:35:29.105Z,6260.00
2019-03-05T10:36:29.067Z,9720.00
2019-03-05T10:37:29.047Z,10840.00
2019-03-05T10:38:29.032Z,7792.00
2019-03-05T10:39:30.819Z,6132.00
2019-03-05T10:40:28.988Z,6956.00
2019-03-05T10:41:28.986Z,5104.00
2019-03-05T10:42:31.952Z,5592.00
2019-03-05T10:43:28.935Z,6720.00
2019-03-05T10:44:28.938Z,5824.00
2019-03-05T10:45:28.888Z,5068.00
2019-03-05T10:46:28.878Z,4764.00
2019-03-05T10:47:28.883Z,4180.00
2019-03-05T10:48:31.748Z,3096.00
2019-03-05T10:49:29.748Z,3220.00
2019-03-05T10:50:28.799Z,3520.00
2019-03-05T10:51:28.779Z,3876.00
2019-03-05T10:52:28.761Z,4156.00
2019-03-05T10:53:29.292Z,5808.00
2019-03-05T10:54:28.724Z,6240.00
2019-03-05T10:55:28.704Z,4396.00
2019-03-05T10:56:28.684Z,4616.00
2019-03-05T10:57:28.663Z,4744.00
2019-03-05T10:58:34.004Z,5016.00
2019-03-05T10:59:28.648Z,5192.00
2019-03-05T11:00:28.606Z,6288.00
2019-03-05T11:01:28.590Z,12220.00
2019-03-05T11:02:28.568Z,9140.00
2019-03-05T11:03:28.547Z,8180.00
2019-03-05T11:04:28.537Z,19104.00
2019-03-05T11:05:28.530Z,7076.00
2019-03-05T11:06:29.290Z,6236.00
2019-03-05T11:07:29.297Z,7140.00
2019-03-05T11:08:28.450Z,7872.00
2019-03-05T11:09:28.441Z,7072.00
2019-03-05T11:10:28.431Z,7120.00
2019-03-05T11:11:28.425Z,7396.00
2019-03-05T11:12:28.379Z,10828.00
2019-03-05T11:13:28.368Z,8804.00
2019-03-05T11:14:28.360Z,8388.00
2019-03-05T11:15:28.319Z,8932.00
2019-03-05T11:16:31.055Z,8236.00
2019-03-05T11:17:28.328Z,7920.00
2019-03-05T11:18:29.877Z,8580.00
2019-03-05T11:19:28.241Z,10536.00
2019-03-05T11:20:28.241Z,15744.00
2019-03-05T11:21:28.201Z,21888.00
2019-03-05T11:22:28.202Z,12004.00
2019-03-05T11:23:28.186Z,11584.00
2019-03-05T11:24:28.170Z,14340.00
2019-03-05T11:25:28.128Z,18368.00
2019-03-05T11:26:28.112Z,16736.00
2019-03-05T11:27:28.093Z,7552.00
2019-03-05T11:28:28.094Z,17440.00
2019-03-05T11:29:28.077Z,19904.00
2019-03-05T11:30:35.726Z,8272.00
2019-03-05T11:31:28.035Z,6580.00
2019-03-05T11:32:28.014Z,5520.00
2019-03-05T11:33:28.012Z,14016.00
2019-03-05T11:34:27.974Z,16544.00
2019-03-05T11:35:27.961Z,19520.00
2019-03-05T11:36:27.946Z,10096.00
2019-03-05T11:37:27.933Z,17568.00
2019-03-05T11:38:27.914Z,17184.00
2019-03-05T11:39:27.915Z,9520.00
2019-03-05T11:40:27.881Z,13520.00
2019-03-05T11:41:27.874Z,10756.00
2019-03-05T11:42:27.847Z,10492.00
2019-03-05T11:43:27.829Z,5672.00
2019-03-05T11:44:27.808Z,6064.00
2019-03-05T11:45:27.792Z,5372.00
2019-03-05T11:46:27.793Z,3940.00
2019-03-05T11:47:27.760Z,3448.00
2019-03-05T11:48:27.743Z,3760.00
2019-03-05T11:49:27.727Z,4388.00
2019-03-05T11:50:27.760Z,4948.00
2019-03-05T11:51:27.704Z,3932.00
2019-03-05T11:52:27.676Z,3360.00
2019-03-05T11:53:27.664Z,2544.00
2019-03-05T11:54:27.648Z,2172.00
2019-03-05T11:55:27.629Z,2156.00
2019-03-05T11:56:27.630Z,2292.00
2019-03-05T11:57:27.591Z,2008.00
2019-03-05T11:58:27.571Z,2012.00
2019-03-05T11:59:27.555Z,2108.00
2019-03-05T12:00:27.538Z,2236.00
2019-03-05T12:01:27.535Z,4292.00
2019-03-05T12:02:27.502Z,11916.00
2019-03-05T12:03:28.297Z,9580.00
2019-03-05T12:04:27.473Z,7756.00
2019-03-05T12:05:27.458Z,6628.00
2019-03-05T12:06:27.429Z,5556.00
2019-03-05T12:07:27.447Z,5884.00
2019-03-05T12:08:28.283Z,6720.00
2019-03-05T12:09:27.377Z,16160.00
2019-03-05T12:10:27.352Z,15776.00
2019-03-05T12:11:27.328Z,16864.00
2019-03-05T12:12:27.315Z,16192.00
2019-03-05T12:13:27.320Z,12592.00
2019-03-05T12:14:27.274Z,13568.00
2019-03-05T12:15:27.275Z,10440.00
2019-03-05T12:16:27.242Z,14464.00
2019-03-05T12:17:27.221Z,14624.00
2019-03-05T12:18:27.242Z,13888.00
2019-03-05T12:19:27.189Z,14400.00
2019-03-05T12:20:27.218Z,12460.00
2019-03-05T12:21:27.177Z,14592.00
2019-03-05T12:22:27.948Z,14688.00
2019-03-05T12:23:27.121Z,14912.00
2019-03-05T12:24:27.140Z,14464.00
2019-03-05T12:25:27.092Z,14464.00
2019-03-05T12:26:27.093Z,15744.00
2019-03-05T12:27:27.075Z,17024.00
2019-03-05T12:28:27.047Z,17152.00
2019-03-05T12:29:27.034Z,16928.00
2019-03-05T12:30:27.028Z,14784.00
2019-03-05T12:31:26.999Z,16576.00
2019-03-05T12:32:26.983Z,4340.00
2019-03-05T12:33:26.983Z,5456.00
2019-03-05T12:34:26.957Z,7816.00
2019-03-05T12:35:26.960Z,8172.00
2019-03-05T12:36:26.963Z,7140.00
2019-03-05T12:37:26.914Z,13216.00
2019-03-05T12:38:26.899Z,9360.00
2019-03-05T12:39:26.892Z,13012.00